Weather at Southwest Rains Volunteer Fire Department Heliport [CLOSED]

Public forecast

Using degrees Fahrenheit for public forecast. Weather courtesy of forecast.io.

Closest aviation weather report (METAR) to Southwest Rains Volunteer Fire Department Heliport

Closest report is Majors Airport, 16.9 nm (31.2 km) NNW.

2024/05/18 01:35 (retrieved 17 minutes ago)

KGVT 180135Z AUTO 00000KT 10SM CLR 22/21 A2975 RMK AO2 TSNO T02250206

Closest aviation forecast (TAF) to Southwest Rains Volunteer Fire Department Heliport

Forecast is more than 12 hours old.

Closest forecast is NAS Fort Worth JRB / Carswell Field, 77.9 nm (144.3 km) W.

2024/05/16 18:54 Ammendment (retrieved 1 day ago)

TAF AMD KNFW 1618/1715 12012KT 9999 -SHRA VCTS SCT050CB OVC120 QNH2970INS WND 040V180 TEMPO 1618/1621 VRB18G25KT 8000 -TSRA BR BKN035CB OVC080 BECMG 1621/1623 06012KT 8000 +SHRA BKN022 OVC035 QNH2964INS BECMG 1700/1702 06015KT 9999 NSW BKN018 OVC030 QNH2966INS BECMG 1705/1707 03009KT 9999 VCTS BKN012CB OVC020 QNH2970INS BECMG 1707/1709 35015G20KT 9000 TSRA BR BKN008CB OVC014 QNH2972INS BECMG 1711/1713 35015KT 9999 -SHRA VCTS SCT012CB BKN024 OVC060 QNH2975INS TX22/1622Z AMD 1815 TN19/1713Z FN20046